Time;durP1;ratioP1;P1;durP2;ratioP2;P2;SDS_P1;SDS_P2;PMS_P1;PMS_P2;Temp;Humidity;BMP_temperature;BMP_pressure;BME280_temperature;BME280_humidity;BME280_pressure;Samples;Min_cycle;Max_cycle;Signal;HPM_P1;HPM_P2
2023/08/21 00:00:08;;;;;;;5.57;1.05;;;19.80;99.90;;;;;;4936105;28;20042;-76
2023/08/21 00:02:37;;;;;;;3.72;0.90;;;19.80;99.90;;;;;;4980043;28;20038;-78
2023/08/21 00:05:04;;;;;;;3.17;0.70;;;19.80;99.90;;;;;;4982873;28;20604;-77
2023/08/21 00:07:30;;;;;;;5.68;0.80;;;19.80;99.90;;;;;;4964227;28;20037;-77
2023/08/21 00:09:57;;;;;;;3.17;0.70;;;19.70;99.90;;;;;;4989051;28;20041;-73
2023/08/21 00:12:23;;;;;;;2.40;0.68;;;19.70;99.90;;;;;;4975953;28;20025;-78
2023/08/21 00:14:50;;;;;;;3.15;0.80;;;19.80;99.90;;;;;;4959588;28;20038;-76
2023/08/21 00:17:16;;;;;;;3.47;0.80;;;19.80;99.90;;;;;;4991519;28;20038;-75
2023/08/21 00:19:42;;;;;;;5.70;0.80;;;19.80;99.90;;;;;;4973787;28;20046;-77
2023/08/21 00:22:09;;;;;;;2.53;0.80;;;19.80;99.90;;;;;;4976225;28;20721;-74
2023/08/21 00:24:35;;;;;;;3.28;0.90;;;19.80;99.90;;;;;;4995989;28;20519;-77
2023/08/21 00:27:03;;;;;;;2.40;0.70;;;19.80;99.90;;;;;;4999080;28;20058;-77
2023/08/21 00:29:30;;;;;;;2.08;0.70;;;19.70;99.90;;;;;;4978378;28;20049;-72
2023/08/21 00:31:56;;;;;;;1.75;0.55;;;19.80;99.90;;;;;;4975942;28;20042;-77
2023/08/21 00:34:23;;;;;;;1.77;0.70;;;19.70;99.90;;;;;;4973526;28;20513;-75
2023/08/21 00:36:49;;;;;;;4.07;1.00;;;19.70;99.90;;;;;;4988482;28;20030;-77
2023/08/21 00:39:16;;;;;;;2.67;0.73;;;19.70;99.90;;;;;;4976323;28;20041;-77
2023/08/21 00:41:42;;;;;;;2.35;0.80;;;19.80;99.90;;;;;;4972124;28;20046;-75
2023/08/21 00:44:09;;;;;;;4.32;0.93;;;19.80;99.90;;;;;;4992815;28;20425;-77
2023/08/21 00:46:36;;;;;;;4.65;0.70;;;19.80;99.90;;;;;;4998068;28;20038;-74
2023/08/21 00:49:04;;;;;;;2.30;0.80;;;19.90;99.90;;;;;;4980224;28;20034;-75
2023/08/21 00:51:30;;;;;;;3.28;0.80;;;19.90;99.90;;;;;;4978717;28;20862;-77
2023/08/21 00:53:58;;;;;;;2.40;0.77;;;19.90;99.90;;;;;;4957834;28;20042;-77
2023/08/21 00:56:25;;;;;;;2.65;0.70;;;20.00;99.90;;;;;;4977353;28;20026;-74
2023/08/21 00:58:51;;;;;;;1.65;0.60;;;20.00;99.90;;;;;;4972934;28;20049;-77
2023/08/21 01:01:21;;;;;;;2.55;0.52;;;20.00;99.90;;;;;;4990286;28;20033;-75
2023/08/21 01:03:48;;;;;;;3.33;0.63;;;20.10;99.90;;;;;;4969584;28;20497;-76
2023/08/21 01:06:15;;;;;;;2.72;0.60;;;20.10;99.90;;;;;;4970485;28;20060;-73
2023/08/21 01:08:59;;;;;;;4.82;1.02;;;20.10;99.90;;;;;;4989318;28;20034;-73
2023/08/21 01:12:07;;;;;;;2.30;0.77;;;20.00;99.90;;;;;;4974286;28;20041;-76
2023/08/21 01:14:39;;;;;;;2.30;0.63;;;20.00;99.90;;;;;;4997650;28;20412;-76
2023/08/21 01:17:09;;;;;;;2.45;0.68;;;19.90;99.90;;;;;;4997434;28;20037;-76
2023/08/21 01:19:45;;;;;;;1.38;0.50;;;19.80;99.90;;;;;;4972901;28;20050;-73
2023/08/21 01:22:12;;;;;;;2.35;0.70;;;19.80;99.90;;;;;;4990329;28;20409;-75
2023/08/21 01:24:38;;;;;;;2.17;0.57;;;19.80;99.90;;;;;;4989870;28;20039;-76
2023/08/21 01:27:05;;;;;;;2.97;0.60;;;19.70;99.90;;;;;;4989427;28;20322;-74
2023/08/21 01:29:33;;;;;;;2.90;0.55;;;19.70;99.90;;;;;;4972035;28;20042;-74
2023/08/21 01:32:11;;;;;;;3.50;0.80;;;19.70;99.90;;;;;;4954567;28;20037;-74
2023/08/21 01:34:40;;;;;;;3.30;0.75;;;19.70;99.90;;;;;;4974139;28;20834;-76
2023/08/21 01:37:08;;;;;;;2.47;0.60;;;19.70;99.90;;;;;;4983465;28;20038;-72
2023/08/21 01:39:35;;;;;;;1.95;0.70;;;19.60;99.90;;;;;;4953137;28;20046;-76
2023/08/21 01:42:01;;;;;;;1.67;0.60;;;19.60;99.90;;;;;;4977589;28;20044;-75
2023/08/21 01:44:28;;;;;;;4.35;0.70;;;19.60;99.90;;;;;;4972804;28;20034;-76
2023/08/21 01:46:54;;;;;;;2.95;0.50;;;19.50;99.90;;;;;;4970204;28;20072;-75
2023/08/21 01:49:21;;;;;;;2.38;0.50;;;19.50;99.90;;;;;;4989410;28;20038;-74
2023/08/21 01:51:47;;;;;;;4.47;0.50;;;19.50;99.90;;;;;;4971538;28;20496;-77
2023/08/21 01:54:14;;;;;;;4.03;0.65;;;19.40;99.90;;;;;;4953164;28;20038;-73
2023/08/21 01:56:40;;;;;;;2.58;0.50;;;19.40;99.90;;;;;;4974964;28;20025;-76
2023/08/21 01:59:07;;;;;;;4.13;0.70;;;19.40;99.90;;;;;;4965836;28;20064;-77
2023/08/21 02:01:34;;;;;;;3.33;0.60;;;19.40;99.90;;;;;;4981912;28;20045;-74
2023/08/21 02:04:00;;;;;;;2.63;0.57;;;19.30;99.90;;;;;;4967778;28;20042;-74
2023/08/21 02:06:27;;;;;;;2.80;0.60;;;19.40;99.90;;;;;;4976328;28;20038;-73
2023/08/21 02:08:53;;;;;;;2.38;0.50;;;19.30;99.90;;;;;;4973294;28;20049;-76
2023/08/21 02:11:20;;;;;;;1.90;0.50;;;19.40;99.90;;;;;;4974043;28;20023;-73
2023/08/21 02:13:46;;;;;;;3.35;0.50;;;19.40;99.90;;;;;;4970807;28;20037;-74
2023/08/21 02:16:13;;;;;;;2.92;0.55;;;19.50;99.90;;;;;;4957938;28;20056;-76
2023/08/21 02:18:41;;;;;;;1.38;0.40;;;19.50;99.90;;;;;;4990998;28;20042;-77
2023/08/21 02:21:07;;;;;;;2.33;0.60;;;19.60;99.90;;;;;;4949897;28;20034;-76
2023/08/21 02:23:34;;;;;;;3.42;0.50;;;19.50;99.90;;;;;;4997613;28;20241;-77
2023/08/21 02:26:00;;;;;;;2.70;0.50;;;19.50;99.90;;;;;;4979880;28;20034;-73
2023/08/21 02:28:26;;;;;;;1.52;0.50;;;19.50;99.90;;;;;;4989652;28;20503;-76
2023/08/21 02:30:53;;;;;;;3.17;0.60;;;19.50;99.90;;;;;;4987358;28;20428;-74
2023/08/21 02:33:19;;;;;;;2.60;0.68;;;19.50;99.90;;;;;;4972926;28;20377;-76
2023/08/21 02:35:46;;;;;;;4.25;0.70;;;19.50;99.90;;;;;;4971489;28;20393;-76
2023/08/21 02:38:12;;;;;;;2.20;0.50;;;19.60;99.90;;;;;;4972340;28;20038;-75
2023/08/21 02:40:39;;;;;;;2.15;0.50;;;19.60;99.90;;;;;;4958228;28;20576;-77
2023/08/21 02:43:05;;;;;;;3.88;0.60;;;19.60;99.90;;;;;;4994829;28;20042;-74
2023/08/21 02:45:31;;;;;;;2.60;0.52;;;19.60;99.90;;;;;;4981882;28;20034;-75
2023/08/21 02:47:58;;;;;;;3.97;1.20;;;19.60;99.90;;;;;;4978976;28;20396;-75
2023/08/21 02:50:25;;;;;;;2.20;0.50;;;19.60;99.90;;;;;;4955996;28;20049;-75
2023/08/21 02:52:51;;;;;;;2.42;0.55;;;19.60;99.90;;;;;;4941960;28;20065;-72
2023/08/21 02:55:17;;;;;;;1.42;0.50;;;19.60;99.90;;;;;;4988435;28;20420;-75
2023/08/21 02:57:45;;;;;;;1.60;0.40;;;19.60;99.90;;;;;;4986172;28;20033;-73
2023/08/21 03:00:12;;;;;;;2.67;0.60;;;19.70;99.90;;;;;;4956619;28;21772;-75
2023/08/21 03:02:42;;;;;;;3.40;0.60;;;19.60;99.90;;;;;;4971624;28;20038;-74
2023/08/21 03:05:10;;;;;;;2.20;0.40;;;19.60;99.90;;;;;;4978332;28;20048;-75
2023/08/21 03:07:36;;;;;;;1.80;0.50;;;19.60;99.90;;;;;;4984085;28;20042;-76
2023/08/21 03:10:03;;;;;;;2.20;0.50;;;19.60;99.90;;;;;;4985399;28;20029;-73
2023/08/21 03:12:29;;;;;;;2.17;0.45;;;19.60;99.90;;;;;;4998080;28;20973;-73
2023/08/21 03:14:56;;;;;;;2.33;0.50;;;19.60;99.90;;;;;;4974869;28;20031;-75
2023/08/21 03:17:23;;;;;;;2.22;0.50;;;19.60;99.90;;;;;;4979407;28;20034;-76
2023/08/21 03:19:50;;;;;;;1.65;0.40;;;19.60;99.90;;;;;;4978541;28;20400;-74
2023/08/21 03:22:16;;;;;;;1.63;0.50;;;19.60;99.90;;;;;;4954259;28;20839;-72
2023/08/21 03:24:44;;;;;;;2.17;0.50;;;19.60;99.90;;;;;;4990378;28;20110;-75
2023/08/21 03:27:10;;;;;;;3.03;0.50;;;19.70;99.90;;;;;;4965714;28;20382;-74
2023/08/21 03:29:36;;;;;;;3.00;0.40;;;19.70;99.90;;;;;;5000526;28;20039;-75
2023/08/21 03:32:03;;;;;;;2.67;0.40;;;19.70;99.90;;;;;;5000429;28;20371;-76
2023/08/21 03:34:30;;;;;;;1.48;0.40;;;19.70;99.90;;;;;;4994839;28;20038;-76
2023/08/21 03:37:00;;;;;;;1.73;0.40;;;19.80;99.90;;;;;;4975642;28;20045;-74
2023/08/21 03:39:30;;;;;;;4.25;0.68;;;19.80;99.90;;;;;;4974807;28;20539;-75
2023/08/21 03:41:57;;;;;;;2.75;0.57;;;19.80;99.90;;;;;;4977227;28;20038;-72
2023/08/21 03:44:24;;;;;;;1.60;0.40;;;19.80;99.90;;;;;;4956776;28;20046;-75
2023/08/21 03:46:50;;;;;;;0.88;0.30;;;19.80;99.90;;;;;;4975907;28;20042;-74
2023/08/21 03:49:17;;;;;;;2.83;0.40;;;19.80;99.90;;;;;;4993756;28;20038;-73
2023/08/21 03:51:43;;;;;;;1.98;0.40;;;19.80;99.90;;;;;;4987007;28;20432;-75
2023/08/21 03:54:10;;;;;;;2.05;0.40;;;19.80;99.90;;;;;;4999291;28;20038;-74
2023/08/21 03:56:37;;;;;;;3.15;0.40;;;19.70;99.90;;;;;;4980672;28;20038;-72
2023/08/21 03:59:03;;;;;;;2.97;0.75;;;19.70;99.90;;;;;;4961544;28;20310;-75
2023/08/21 04:01:30;;;;;;;2.17;0.50;;;19.70;99.90;;;;;;4992147;28;20037;-75
2023/08/21 04:03:57;;;;;;;4.93;0.50;;;19.60;99.90;;;;;;4975880;28;20667;-77
2023/08/21 04:06:23;;;;;;;3.28;0.40;;;19.60;99.90;;;;;;4991857;28;20038;-72
2023/08/21 04:08:49;;;;;;;2.22;0.50;;;19.50;99.90;;;;;;4977625;28;20469;-76
2023/08/21 04:11:16;;;;;;;3.58;0.50;;;19.40;99.90;;;;;;4978198;28;20041;-76
2023/08/21 04:13:43;;;;;;;3.58;0.60;;;19.40;99.90;;;;;;4967161;28;20485;-75
2023/08/21 04:16:11;;;;;;;1.75;0.43;;;19.30;99.90;;;;;;4982844;28;20409;-74
2023/08/21 04:18:38;;;;;;;2.10;0.40;;;19.20;99.90;;;;;;4980030;28;20409;-76
2023/08/21 04:21:06;;;;;;;2.47;0.80;;;19.20;99.90;;;;;;4975668;28;20034;-75
2023/08/21 04:23:32;;;;;;;2.22;0.47;;;19.20;99.90;;;;;;4992117;28;20445;-74
2023/08/21 04:26:03;;;;;;;2.97;0.40;;;19.20;99.90;;;;;;4974095;28;20595;-75
2023/08/21 04:28:33;;;;;;;1.17;0.40;;;19.20;99.90;;;;;;4954331;28;20042;-74
2023/08/21 04:31:05;;;;;;;2.13;0.47;;;19.20;99.90;;;;;;4973809;28;20037;-75
2023/08/21 04:33:32;;;;;;;2.33;0.40;;;19.30;99.90;;;;;;4990933;28;20048;-76
2023/08/21 04:35:59;;;;;;;2.33;0.60;;;19.30;99.90;;;;;;5000868;28;20389;-76
2023/08/21 04:38:26;;;;;;;1.67;0.40;;;19.30;99.90;;;;;;5000001;28;20041;-74
2023/08/21 04:40:52;;;;;;;2.72;0.55;;;19.30;99.90;;;;;;4978152;28;20555;-74
2023/08/21 04:43:19;;;;;;;4.00;1.38;;;19.40;99.90;;;;;;4971368;28;20034;-75
2023/08/21 04:45:52;;;;;;;2.75;0.52;;;19.40;99.90;;;;;;4990613;28;21401;-74
2023/08/21 04:48:21;;;;;;;2.40;0.60;;;19.40;99.90;;;;;;4972268;28;20037;-73
2023/08/21 04:50:49;;;;;;;2.45;0.70;;;19.40;99.90;;;;;;4960878;28;20022;-75
2023/08/21 04:53:15;;;;;;;4.22;1.73;;;19.40;99.90;;;;;;4973731;28;20034;-73
2023/08/21 04:55:42;;;;;;;5.43;4.53;;;19.40;99.90;;;;;;4978916;28;20037;-76
2023/08/21 04:58:10;;;;;;;6.45;3.80;;;19.40;99.90;;;;;;5000035;28;20029;-76
2023/08/21 05:00:36;;;;;;;5.90;2.25;;;19.40;99.90;;;;;;4984385;28;20353;-73
2023/08/21 05:03:03;;;;;;;3.50;1.38;;;19.40;99.90;;;;;;4988827;28;20038;-75
2023/08/21 05:05:30;;;;;;;3.92;1.10;;;19.40;99.90;;;;;;4992167;28;20765;-75
2023/08/21 05:07:57;;;;;;;2.70;0.70;;;19.50;99.90;;;;;;4958335;28;20042;-75
2023/08/21 05:10:24;;;;;;;3.33;0.77;;;19.50;99.90;;;;;;4960203;28;20049;-75
2023/08/21 05:12:50;;;;;;;2.58;0.60;;;19.50;99.90;;;;;;4957888;28;20042;-75
2023/08/21 05:15:18;;;;;;;2.92;0.93;;;19.60;99.90;;;;;;4955792;28;20045;-72
2023/08/21 05:17:46;;;;;;;3.15;1.15;;;19.60;99.90;;;;;;4964670;28;20571;-75
2023/08/21 05:20:14;;;;;;;3.33;1.50;;;19.70;99.90;;;;;;4998672;28;20046;-74
2023/08/21 05:22:41;;;;;;;4.07;1.10;;;19.70;99.90;;;;;;4981462;28;20030;-72
2023/08/21 05:25:10;;;;;;;4.53;1.20;;;19.80;99.90;;;;;;4974658;28;21129;-75
2023/08/21 05:27:37;;;;;;;5.57;0.90;;;19.80;99.90;;;;;;4987831;28;20142;-73
2023/08/21 05:30:04;;;;;;;3.03;1.00;;;19.80;99.90;;;;;;4968544;28;20420;-75
2023/08/21 05:32:32;;;;;;;2.10;0.70;;;19.80;99.90;;;;;;4970690;28;20041;-76
2023/08/21 05:34:58;;;;;;;4.00;1.05;;;19.70;99.90;;;;;;4988611;28;20064;-73
2023/08/21 05:37:26;;;;;;;3.45;0.90;;;19.60;99.90;;;;;;4985742;28;20045;-74
2023/08/21 05:39:54;;;;;;;4.22;0.98;;;19.60;99.90;;;;;;4958959;28;20045;-75
2023/08/21 05:42:20;;;;;;;2.65;0.80;;;19.60;99.90;;;;;;4969216;28;20408;-73
2023/08/21 05:44:47;;;;;;;5.43;1.38;;;19.60;99.90;;;;;;4986520;28;20042;-74
2023/08/21 05:47:13;;;;;;;4.00;1.30;;;19.70;99.90;;;;;;4961578;28;20038;-75
2023/08/21 05:49:40;;;;;;;3.45;1.48;;;19.80;99.90;;;;;;4973382;28;20461;-74
2023/08/21 05:52:06;;;;;;;5.72;1.50;;;19.90;99.90;;;;;;4960165;28;20040;-73
2023/08/21 05:54:33;;;;;;;3.03;1.30;;;20.00;99.90;;;;;;4956011;28;20041;-76
2023/08/21 05:56:59;;;;;;;6.10;2.05;;;20.10;99.90;;;;;;4989645;28;20033;-75
2023/08/21 05:59:32;;;;;;;4.05;1.98;;;20.10;99.90;;;;;;4974441;28;20469;-76
2023/08/21 06:02:01;;;;;;;7.78;4.25;;;20.10;99.90;;;;;;4976732;28;20037;-75
2023/08/21 06:04:28;;;;;;;5.82;2.95;;;20.00;99.90;;;;;;4965907;28;20029;-76
2023/08/21 06:07:00;;;;;;;3.75;1.45;;;20.00;99.90;;;;;;4964541;28;20038;-74
2023/08/21 06:09:29;;;;;;;3.20;1.10;;;19.90;99.90;;;;;;4959085;28;20034;-75
2023/08/21 06:11:56;;;;;;;3.83;0.80;;;19.90;99.90;;;;;;4971919;28;20039;-77
2023/08/21 06:14:28;;;;;;;4.93;1.40;;;19.90;99.90;;;;;;4956777;28;20652;-75
2023/08/21 06:17:03;;;;;;;3.92;0.80;;;20.10;99.90;;;;;;4958531;28;20037;-76
2023/08/21 06:19:30;;;;;;;2.58;0.60;;;20.30;99.90;;;;;;4959176;28;20126;-74
2023/08/21 06:21:56;;;;;;;2.78;0.80;;;20.50;99.90;;;;;;4973133;28;20049;-76
2023/08/21 06:24:24;;;;;;;3.35;0.70;;;20.80;99.90;;;;;;4992642;28;20906;-75
2023/08/21 06:26:55;;;;;;;2.45;0.60;;;21.00;99.90;;;;;;4996540;28;20030;-75
2023/08/21 06:29:22;;;;;;;4.45;0.57;;;21.10;99.90;;;;;;4993737;28;20028;-76
2023/08/21 06:31:49;;;;;;;1.65;0.60;;;21.20;99.90;;;;;;4973057;28;20037;-74
2023/08/21 06:34:16;;;;;;;3.92;0.82;;;21.30;99.90;;;;;;4973936;28;20514;-77
2023/08/21 06:36:42;;;;;;;2.95;0.80;;;21.30;99.90;;;;;;4974186;28;20043;-74
2023/08/21 06:39:09;;;;;;;2.85;0.60;;;21.30;99.90;;;;;;4993907;28;20042;-75
2023/08/21 06:41:35;;;;;;;1.90;0.50;;;21.30;99.90;;;;;;4994297;28;21014;-74
2023/08/21 06:44:02;;;;;;;2.63;0.50;;;21.20;99.90;;;;;;4974866;28;20038;-76
2023/08/21 06:46:31;;;;;;;5.18;1.05;;;21.20;99.90;;;;;;4969347;28;20041;-75
2023/08/21 06:48:57;;;;;;;3.25;0.77;;;21.20;99.90;;;;;;4970691;28;20025;-74
2023/08/21 06:51:23;;;;;;;4.13;1.83;;;21.30;99.90;;;;;;4985329;28;20365;-74
2023/08/21 06:53:50;;;;;;;2.33;0.90;;;21.50;99.90;;;;;;4988051;28;20038;-75
2023/08/21 06:56:17;;;;;;;3.13;0.77;;;21.60;99.90;;;;;;4967392;28;20044;-76
2023/08/21 06:58:43;;;;;;;3.15;0.80;;;21.80;99.90;;;;;;4993908;28;20041;-75
2023/08/21 07:01:10;;;;;;;1.92;0.63;;;22.00;99.90;;;;;;4955339;28;20034;-77
2023/08/21 07:03:36;;;;;;;3.70;0.60;;;22.20;99.90;;;;;;4976717;28;20511;-77
2023/08/21 07:06:03;;;;;;;5.07;1.15;;;22.40;99.90;;;;;;4974734;28;20045;-75
2023/08/21 07:08:29;;;;;;;2.40;0.60;;;22.60;99.90;;;;;;4978094;28;20038;-75
2023/08/21 07:10:55;;;;;;;2.30;0.70;;;22.70;99.90;;;;;;4974746;28;20428;-74
2023/08/21 07:13:22;;;;;;;2.05;0.50;;;22.80;99.90;;;;;;4981888;28;20253;-77
2023/08/21 07:15:48;;;;;;;2.72;0.88;;;22.90;99.90;;;;;;5003483;28;20029;-76
2023/08/21 07:18:15;;;;;;;2.05;0.50;;;22.80;99.90;;;;;;4983803;28;20044;-76
2023/08/21 07:20:42;;;;;;;3.00;0.75;;;22.80;99.90;;;;;;4956893;28;20057;-75
2023/08/21 07:23:09;;;;;;;3.28;0.65;;;22.80;99.90;;;;;;4973569;28;22261;-75
2023/08/21 07:25:35;;;;;;;4.85;0.98;;;22.80;99.90;;;;;;4958543;28;20042;-74
2023/08/21 07:28:02;;;;;;;4.82;0.70;;;23.00;99.90;;;;;;4970972;28;20392;-76
2023/08/21 07:30:28;;;;;;;3.67;0.65;;;23.30;99.90;;;;;;4972721;28;21645;-77
2023/08/21 07:32:54;;;;;;;6.60;4.10;;;23.50;99.90;;;;;;4972934;28;20044;-76
2023/08/21 07:35:21;;;;;;;7.50;4.22;;;23.70;99.90;;;;;;4978969;28;20767;-76
2023/08/21 07:37:47;;;;;;;4.60;1.70;;;23.90;99.90;;;;;;4997104;28;20038;-76
2023/08/21 07:40:14;;;;;;;3.92;1.00;;;24.00;99.90;;;;;;4968184;28;20653;-77
2023/08/21 07:42:40;;;;;;;1.75;0.60;;;24.30;99.90;;;;;;4989307;28;20030;-74
2023/08/21 07:45:07;;;;;;;3.58;0.60;;;24.50;99.90;;;;;;4956733;28;21038;-76
2023/08/21 07:47:34;;;;;;;4.45;0.70;;;24.60;99.90;;;;;;4958780;28;20033;-75
2023/08/21 07:50:00;;;;;;;4.10;0.63;;;24.70;99.90;;;;;;4985897;28;20037;-76
2023/08/21 07:52:27;;;;;;;1.35;0.40;;;24.70;99.90;;;;;;4972257;28;20491;-74
2023/08/21 07:54:54;;;;;;;2.13;0.50;;;24.70;99.90;;;;;;4971616;28;20038;-76
2023/08/21 07:57:20;;;;;;;3.10;0.90;;;24.60;99.90;;;;;;4997464;28;20045;-75
2023/08/21 07:59:46;;;;;;;4.55;0.50;;;24.60;99.90;;;;;;4995878;28;20394;-77
2023/08/21 08:02:13;;;;;;;1.42;0.40;;;24.60;99.90;;;;;;4994858;28;20355;-77
2023/08/21 08:04:40;;;;;;;2.03;0.50;;;24.60;99.90;;;;;;4972355;28;20042;-77
2023/08/21 08:07:07;;;;;;;3.92;0.60;;;24.60;99.90;;;;;;4986658;28;20035;-74
2023/08/21 08:09:34;;;;;;;2.78;0.50;;;24.70;99.90;;;;;;4970896;28;20042;-77
2023/08/21 08:12:00;;;;;;;2.20;0.55;;;24.80;99.90;;;;;;4987102;28;20042;-74
2023/08/21 08:14:26;;;;;;;2.50;0.40;;;24.90;99.90;;;;;;4987101;28;20053;-76
2023/08/21 08:16:53;;;;;;;3.83;0.52;;;25.00;99.90;;;;;;4959410;28;20042;-77
2023/08/21 08:19:19;;;;;;;2.80;0.50;;;25.20;99.90;;;;;;4983021;28;20042;-78
2023/08/21 08:21:46;;;;;;;2.65;0.52;;;25.40;99.90;;;;;;4983066;28;20030;-76
2023/08/21 08:24:12;;;;;;;3.47;0.60;;;25.50;99.90;;;;;;4992793;28;20038;-75
2023/08/21 08:26:40;;;;;;;3.72;0.60;;;25.60;99.90;;;;;;4969176;28;20064;-76
2023/08/21 08:29:06;;;;;;;5.60;1.08;;;25.70;99.90;;;;;;4973831;28;20045;-77
2023/08/21 08:31:33;;;;;;;3.50;0.80;;;25.90;99.90;;;;;;4952407;28;20496;-75
2023/08/21 08:33:59;;;;;;;5.15;1.15;;;26.10;99.90;;;;;;4955415;28;20041;-75
2023/08/21 08:36:26;;;;;;;4.28;2.42;;;26.10;99.90;;;;;;4988605;28;20042;-77
2023/08/21 08:38:53;;;;;;;4.22;1.25;;;26.10;99.90;;;;;;4961850;28;20065;-75
2023/08/21 08:41:43;;;;;;;5.97;0.82;;;26.10;99.90;;;;;;4967086;28;20045;-75
2023/08/21 08:44:12;;;;;;;2.92;0.60;;;26.10;99.90;;;;;;4973476;28;20058;-77
2023/08/21 08:46:39;;;;;;;4.05;0.68;;;26.00;99.90;;;;;;4974326;28;20038;-77
2023/08/21 08:49:05;;;;;;;2.10;0.82;;;25.90;99.90;;;;;;4973125;28;20038;-74
2023/08/21 08:51:34;;;;;;;2.78;0.50;;;25.90;99.90;;;;;;4990940;28;20038;-77
2023/08/21 08:54:01;;;;;;;4.22;0.85;;;25.90;99.90;;;;;;4974671;28;20045;-78
2023/08/21 08:56:27;;;;;;;2.20;0.50;;;25.90;99.90;;;;;;4974280;28;20041;-81
2023/08/21 08:58:53;;;;;;;2.05;0.50;;;26.10;99.90;;;;;;4954732;28;20057;-80
2023/08/21 09:01:20;;;;;;;4.90;1.17;;;26.10;99.90;;;;;;4978583;28;20126;-80
2023/08/21 09:03:46;;;;;;;2.20;0.60;;;26.00;99.90;;;;;;4999083;28;20033;-78
2023/08/21 09:06:13;;;;;;;3.63;0.60;;;26.00;99.90;;;;;;4981372;28;20034;-75
2023/08/21 09:08:53;;;;;;;4.00;0.68;;;26.10;99.90;;;;;;4988968;28;20452;-77
2023/08/21 09:11:20;;;;;;;4.50;0.63;;;26.30;99.90;;;;;;4974633;28;20045;-76
2023/08/21 09:13:49;;;;;;;2.97;0.60;;;26.50;99.90;;;;;;4970494;28;20034;-78
2023/08/21 09:16:17;;;;;;;2.30;0.40;;;26.70;99.90;;;;;;4970345;28;20022;-76
2023/08/21 09:18:58;;;;;;;10.95;9.75;;;26.80;99.90;;;;;;4972735;28;20042;-73
2023/08/21 09:21:27;;;;;;;8.02;3.50;;;26.90;99.90;;;;;;4978762;28;20356;-76
2023/08/21 09:24:09;;;;;;;6.93;5.07;;;26.90;99.90;;;;;;4962088;28;20394;-77
2023/08/21 09:26:37;;;;;;;3.58;1.10;;;26.90;99.80;;;;;;4982402;28;20041;-74
2023/08/21 09:29:05;;;;;;;1.73;0.57;;;26.90;99.90;;;;;;4960499;28;20465;-77
2023/08/21 09:31:33;;;;;;;3.50;0.63;;;27.10;99.80;;;;;;4970364;28;20050;-73
2023/08/21 09:34:04;;;;;;;1.85;0.40;;;27.30;99.50;;;;;;4988141;28;20041;-74
2023/08/21 09:36:32;;;;;;;3.45;0.93;;;27.50;99.30;;;;;;4977403;28;20030;-77
2023/08/21 09:38:58;;;;;;;1.98;0.50;;;27.70;99.00;;;;;;4968434;28;20497;-77
2023/08/21 09:41:25;;;;;;;2.53;0.50;;;28.00;98.80;;;;;;4972780;28;20353;-75
2023/08/21 09:43:52;;;;;;;2.63;0.60;;;28.30;98.20;;;;;;4996012;28;20038;-76
2023/08/21 09:46:26;;;;;;;5.38;0.88;;;28.30;97.80;;;;;;4985004;28;20488;-78
2023/08/21 09:48:53;;;;;;;6.90;2.17;;;28.50;96.70;;;;;;4975460;28;20069;-76
2023/08/21 09:51:21;;;;;;;6.15;2.10;;;28.40;96.70;;;;;;4955850;28;20950;-75
2023/08/21 09:54:06;;;;;;;4.45;0.90;;;28.50;96.80;;;;;;4973775;28;20472;-74
2023/08/21 09:56:33;;;;;;;2.63;0.57;;;28.40;96.50;;;;;;4972243;28;20045;-75
2023/08/21 09:59:00;;;;;;;2.72;0.60;;;28.40;96.40;;;;;;4960875;28;20606;-76
2023/08/21 10:01:26;;;;;;;2.13;0.50;;;28.40;96.30;;;;;;4986971;28;20033;-75
2023/08/21 10:03:57;;;;;;;1.73;0.50;;;28.40;96.20;;;;;;4950627;28;20042;-77
2023/08/21 10:06:23;;;;;;;3.63;1.05;;;28.50;96.10;;;;;;4986204;28;20049;-73
2023/08/21 10:08:54;;;;;;;6.55;2.08;;;28.50;96.20;;;;;;4996858;28;20367;-79
2023/08/21 10:11:21;;;;;;;2.65;0.70;;;28.50;95.70;;;;;;4990547;28;20034;-77
2023/08/21 10:13:50;;;;;;;4.22;0.85;;;28.50;95.60;;;;;;4954260;28;20034;-74
2023/08/21 10:16:17;;;;;;;1.73;0.43;;;28.40;95.30;;;;;;4972932;28;20030;-74
2023/08/21 10:18:47;;;;;;;2.92;0.50;;;28.50;95.40;;;;;;4974736;28;20049;-81
2023/08/21 10:21:16;;;;;;;2.53;0.60;;;28.60;95.30;;;;;;4955059;28;20050;-81
2023/08/21 10:23:50;;;;;;;3.90;0.60;;;28.80;95.30;;;;;;4976997;28;20045;-80
2023/08/21 10:26:20;;;;;;;3.63;0.68;;;29.00;95.10;;;;;;4982565;28;20428;-81
2023/08/21 10:28:52;;;;;;;3.63;0.65;;;29.20;94.70;;;;;;4997224;28;20030;-79
2023/08/21 10:31:39;;;;;;;3.55;1.05;;;29.40;94.30;;;;;;4974040;28;20034;-79
2023/08/21 10:34:07;;;;;;;3.40;0.50;;;29.60;94.10;;;;;;4975048;28;20519;-81
2023/08/21 10:36:38;;;;;;;4.53;0.73;;;29.80;93.50;;;;;;4989116;28;20037;-80
2023/08/21 10:39:05;;;;;;;2.50;0.50;;;29.90;93.40;;;;;;4974478;28;20802;-79
2023/08/21 10:41:36;;;;;;;4.95;0.55;;;30.10;93.20;;;;;;4973313;28;20038;-75
2023/08/21 10:44:06;;;;;;;3.72;0.70;;;30.40;92.80;;;;;;4985671;28;20034;-79
2023/08/21 10:46:52;;;;;;;3.05;0.70;;;30.70;92.40;;;;;;4995876;28;20038;-76
2023/08/21 10:49:19;;;;;;;2.15;0.60;;;31.10;92.10;;;;;;4969207;28;20038;-78
2023/08/21 10:51:46;;;;;;;2.75;0.60;;;31.30;91.80;;;;;;4978264;28;20095;-76
2023/08/21 10:54:16;;;;;;;3.85;0.60;;;31.20;91.20;;;;;;4973742;28;20488;-75
2023/08/21 10:56:42;;;;;;;1.70;0.70;;;31.00;91.20;;;;;;4974037;28;20041;-79
2023/08/21 10:59:09;;;;;;;5.57;0.80;;;30.80;91.10;;;;;;4957428;28;20341;-79
2023/08/21 11:01:45;;;;;;;3.55;0.60;;;30.60;91.10;;;;;;4989528;28;20469;-79
2023/08/21 11:04:12;;;;;;;5.40;1.00;;;30.50;91.00;;;;;;4971663;28;20029;-81
2023/08/21 11:06:39;;;;;;;2.00;0.68;;;30.80;90.70;;;;;;4976747;28;20357;-82
2023/08/21 11:09:12;;;;;;;2.20;0.50;;;31.30;90.40;;;;;;4984218;28;20034;-80
2023/08/21 11:11:38;;;;;;;2.97;0.60;;;31.90;89.50;;;;;;4982480;28;20493;-78
2023/08/21 11:14:04;;;;;;;2.75;0.60;;;32.50;88.20;;;;;;4973785;28;20417;-76
2023/08/21 11:16:31;;;;;;;2.78;0.73;;;33.00;86.40;;;;;;4967212;28;20042;-78
2023/08/21 11:18:57;;;;;;;5.15;0.80;;;33.50;85.70;;;;;;4969670;28;20615;-74
2023/08/21 11:21:25;;;;;;;4.70;0.90;;;34.00;85.10;;;;;;4969921;28;20045;-78
2023/08/21 11:23:51;;;;;;;3.47;0.60;;;34.50;83.40;;;;;;4955561;28;20037;-81
2023/08/21 11:26:18;;;;;;;3.85;0.82;;;34.90;81.70;;;;;;4972824;28;20038;-76
2023/08/21 11:28:44;;;;;;;2.60;0.52;;;35.20;79.80;;;;;;4967472;28;20034;-81
2023/08/21 11:31:12;;;;;;;3.72;0.80;;;35.50;77.90;;;;;;4996972;28;20030;-77
2023/08/21 11:33:41;;;;;;;4.20;0.90;;;35.60;75.60;;;;;;4977621;28;20299;-81
2023/08/21 11:36:08;;;;;;;5.25;0.80;;;35.60;74.40;;;;;;4972940;28;20053;-78
2023/08/21 11:38:34;;;;;;;3.25;1.40;;;35.80;73.30;;;;;;4989522;28;20041;-79
2023/08/21 11:41:02;;;;;;;3.13;0.57;;;35.90;73.10;;;;;;4971647;28;20398;-78
2023/08/21 11:43:35;;;;;;;3.05;0.50;;;36.10;71.00;;;;;;4957129;28;20041;-79
2023/08/21 11:46:06;;;;;;;4.75;0.70;;;36.20;70.50;;;;;;4958197;28;20046;-81
2023/08/21 11:48:33;;;;;;;3.92;0.80;;;36.30;70.30;;;;;;4981320;28;20044;-81
2023/08/21 11:51:01;;;;;;;4.13;0.60;;;36.70;69.60;;;;;;4981944;28;20042;-77
2023/08/21 11:53:37;;;;;;;4.38;0.60;;;37.00;68.40;;;;;;4977802;28;20045;-82
2023/08/21 11:56:11;;;;;;;3.53;0.80;;;37.40;67.20;;;;;;4974369;28;20042;-74
2023/08/21 11:58:42;;;;;;;2.95;0.50;;;37.40;64.80;;;;;;4988691;28;20290;-77
2023/08/21 12:01:09;;;;;;;5.07;0.70;;;37.50;65.80;;;;;;4970489;28;20052;-74
2023/08/21 12:03:40;;;;;;;2.97;0.50;;;37.80;65.80;;;;;;4956896;28;20523;-79
2023/08/21 12:06:08;;;;;;;4.18;1.45;;;38.10;63.80;;;;;;4986727;28;20038;-76
2023/08/21 12:08:35;;;;;;;3.03;0.70;;;38.30;63.10;;;;;;4988009;28;20401;-76
2023/08/21 12:11:02;;;;;;;3.38;0.60;;;38.60;63.10;;;;;;4963806;28;20038;-83
2023/08/21 12:13:29;;;;;;;2.83;0.60;;;38.90;62.30;;;;;;4980364;28;20504;-81
2023/08/21 12:15:56;;;;;;;2.38;0.65;;;39.10;61.40;;;;;;4962227;28;20038;-79
2023/08/21 12:18:23;;;;;;;4.85;0.52;;;39.50;60.90;;;;;;4937062;28;20151;-78
2023/08/21 12:20:49;;;;;;;3.33;0.50;;;39.90;59.80;;;;;;4971244;28;20042;-80
2023/08/21 12:23:16;;;;;;;2.67;0.60;;;40.20;59.40;;;;;;4972810;28;20030;-79
2023/08/21 12:25:42;;;;;;;2.13;0.40;;;40.50;57.50;;;;;;4969583;28;20578;-79
2023/08/21 12:28:08;;;;;;;2.22;0.57;;;40.50;56.50;;;;;;4971874;28;20033;-77
2023/08/21 12:30:35;;;;;;;2.33;0.50;;;40.60;56.10;;;;;;4973227;28;20037;-74
2023/08/21 12:33:02;;;;;;;3.10;0.60;;;40.80;55.50;;;;;;4964783;28;20037;-78
2023/08/21 12:35:29;;;;;;;3.58;0.40;;;40.80;54.40;;;;;;4983506;28;20041;-77
2023/08/21 12:38:05;;;;;;;2.95;0.40;;;40.80;54.00;;;;;;4943869;28;20421;-77
2023/08/21 12:40:32;;;;;;;3.35;0.40;;;40.90;54.00;;;;;;4956327;28;20069;-76
2023/08/21 12:42:58;;;;;;;3.88;0.60;;;41.00;54.30;;;;;;4967119;28;20076;-81
2023/08/21 12:45:24;;;;;;;3.65;0.50;;;41.20;54.50;;;;;;4953783;28;22922;-79
2023/08/21 12:47:51;;;;;;;3.47;0.40;;;41.50;53.40;;;;;;4989209;28;20065;-75
2023/08/21 12:50:17;;;;;;;2.40;0.30;;;41.70;53.20;;;;;;4967298;28;20034;-79